createdAt,value
2018-01-30T00:00:36.569Z,12.32
2018-01-30T00:03:05.658Z,12.18
2018-01-30T00:05:34.071Z,7.40
2018-01-30T00:08:02.386Z,8.25
2018-01-30T00:10:30.069Z,7.85
2018-01-30T00:12:57.919Z,8.00
2018-01-30T00:15:25.400Z,6.47
2018-01-30T00:17:54.498Z,7.43
2018-01-30T00:20:22.737Z,9.95
2018-01-30T00:22:50.219Z,14.45
2018-01-30T00:25:17.706Z,13.10
2018-01-30T00:27:45.186Z,11.82
2018-01-30T00:30:12.664Z,11.20
2018-01-30T00:32:40.230Z,17.83
2018-01-30T00:35:08.726Z,11.65
2018-01-30T00:37:36.985Z,16.58
2018-01-30T00:40:08.374Z,18.27
2018-01-30T00:42:36.003Z,9.85
2018-01-30T00:45:04.330Z,13.35
2018-01-30T00:47:31.809Z,12.68
2018-01-30T00:50:00.819Z,10.68
2018-01-30T00:52:30.050Z,14.23
2018-01-30T00:54:57.533Z,11.45
2018-01-30T00:57:26.085Z,13.73
2018-01-30T00:59:53.627Z,19.05
2018-01-30T01:02:21.159Z,11.85
2018-01-30T01:04:49.564Z,12.63
2018-01-30T01:07:17.058Z,10.27
2018-01-30T01:09:45.423Z,13.15
2018-01-30T01:12:12.950Z,12.40
2018-01-30T01:14:40.420Z,12.82
2018-01-30T01:17:07.926Z,10.07
2018-01-30T01:19:35.401Z,11.40
2018-01-30T01:22:02.938Z,10.35
2018-01-30T01:24:30.471Z,14.60
2018-01-30T01:26:57.957Z,9.93
2018-01-30T01:29:25.434Z,9.10
2018-01-30T01:31:52.933Z,8.07
2018-01-30T01:34:20.443Z,10.90
2018-01-30T01:36:47.923Z,12.23
2018-01-30T01:39:15.526Z,11.98
2018-01-30T01:41:43.258Z,10.93
2018-01-30T01:44:11.669Z,9.48
2018-01-30T01:46:40.937Z,10.70
2018-01-30T01:49:13.415Z,10.50
2018-01-30T01:51:41.710Z,11.40
2018-01-30T01:54:09.259Z,11.80
2018-01-30T01:56:37.970Z,12.55
2018-01-30T01:59:06.364Z,12.18
2018-01-30T02:01:34.064Z,15.68
2018-01-30T02:04:01.539Z,11.43
2018-01-30T02:06:30.617Z,15.15
2018-01-30T02:09:03.199Z,15.65
2018-01-30T02:11:31.418Z,11.07
2018-01-30T02:14:00.151Z,16.48
2018-01-30T02:16:27.629Z,12.32
2018-01-30T02:18:56.633Z,11.32
2018-01-30T02:21:24.116Z,13.25
2018-01-30T02:23:52.660Z,12.60
2018-01-30T02:26:20.451Z,17.35
2018-01-30T02:28:47.939Z,14.35
2018-01-30T02:31:15.421Z,16.40
2018-01-30T02:33:43.216Z,11.85
2018-01-30T02:36:10.790Z,11.35
2018-01-30T02:38:38.414Z,12.05
2018-01-30T02:41:05.935Z,11.75
2018-01-30T02:43:34.657Z,11.82
2018-01-30T02:46:02.153Z,14.07
2018-01-30T02:48:29.746Z,13.20
2018-01-30T02:50:57.230Z,12.10
2018-01-30T02:53:24.717Z,9.45
2018-01-30T02:55:52.257Z,14.50
2018-01-30T02:58:20.383Z,14.13
2018-01-30T03:00:48.490Z,13.02
2018-01-30T03:03:16.591Z,14.40
2018-01-30T03:05:44.079Z,14.02
2018-01-30T03:08:13.213Z,12.80
2018-01-30T03:10:40.714Z,11.10
2018-01-30T03:13:09.229Z,13.05
2018-01-30T03:15:39.967Z,14.93
2018-01-30T03:18:07.481Z,16.05
2018-01-30T03:20:34.972Z,13.20
2018-01-30T03:23:03.325Z,16.25
2018-01-30T03:25:30.872Z,19.85
2018-01-30T03:27:58.553Z,20.77
2018-01-30T03:30:26.810Z,14.85
2018-01-30T03:32:54.312Z,16.20
2018-01-30T03:35:21.798Z,17.30
2018-01-30T03:37:49.375Z,21.37
2018-01-30T03:40:17.315Z,18.08
2018-01-30T03:42:44.829Z,21.52
2018-01-30T03:45:12.306Z,21.92
2018-01-30T03:47:40.723Z,21.45
2018-01-30T03:50:08.238Z,19.95
2018-01-30T03:52:36.494Z,19.15
2018-01-30T03:55:04.056Z,20.45
2018-01-30T03:57:31.550Z,17.87
2018-01-30T03:59:59.311Z,18.62
2018-01-30T04:02:26.841Z,21.85
2018-01-30T04:04:55.343Z,23.58
2018-01-30T04:07:22.966Z,25.92
2018-01-30T04:09:50.760Z,19.73
2018-01-30T04:12:19.018Z,24.67
2018-01-30T04:14:46.489Z,23.05
2018-01-30T04:17:14.900Z,21.80
2018-01-30T04:19:42.425Z,23.67
2018-01-30T04:22:10.740Z,24.10
2018-01-30T04:24:39.155Z,32.08
2018-01-30T04:27:06.657Z,23.80
2018-01-30T04:29:34.914Z,23.58
2018-01-30T04:32:03.165Z,27.98
2018-01-30T04:34:31.429Z,30.27
2018-01-30T04:37:00.779Z,21.58
2018-01-30T04:39:29.813Z,23.55
2018-01-30T04:41:57.318Z,22.90
2018-01-30T04:44:25.597Z,25.25
2018-01-30T04:46:53.094Z,24.23
2018-01-30T04:49:20.618Z,21.98
2018-01-30T04:51:48.893Z,36.25
2018-01-30T04:54:17.185Z,23.20
2018-01-30T04:56:45.842Z,32.75
2018-01-30T04:59:13.325Z,23.00
2018-01-30T05:01:41.991Z,22.02
2018-01-30T05:04:10.278Z,24.10
2018-01-30T05:06:38.087Z,24.85
2018-01-30T05:09:06.393Z,23.50
2018-01-30T05:11:33.945Z,27.35
2018-01-30T05:14:01.475Z,26.42
2018-01-30T05:16:28.957Z,27.50
2018-01-30T05:18:56.519Z,29.95
2018-01-30T05:21:24.025Z,31.17
2018-01-30T05:23:51.517Z,32.75
2018-01-30T05:26:19.012Z,28.58
2018-01-30T05:28:46.505Z,26.77
2018-01-30T05:31:14.028Z,25.92
2018-01-30T05:33:42.513Z,33.38
2018-01-30T05:36:10.129Z,28.50
2018-01-30T05:38:37.615Z,31.73
2018-01-30T05:41:05.105Z,26.00
2018-01-30T05:43:33.382Z,30.80
2018-01-30T05:46:01.722Z,27.80
2018-01-30T05:48:29.421Z,33.70
2018-01-30T05:50:57.036Z,30.48
2018-01-30T05:53:24.635Z,30.33
2018-01-30T05:55:52.311Z,26.58
2018-01-30T05:58:19.862Z,29.90
2018-01-30T06:00:48.188Z,35.40
2018-01-30T06:03:15.701Z,35.97
2018-01-30T06:05:44.662Z,30.00
2018-01-30T06:08:12.947Z,35.67
2018-01-30T06:10:41.883Z,28.00
2018-01-30T06:13:09.526Z,27.77
2018-01-30T06:15:39.378Z,30.77
2018-01-30T06:18:07.538Z,31.48
2018-01-30T06:20:35.286Z,32.15
2018-01-30T06:23:04.705Z,33.67
2018-01-30T06:25:33.337Z,27.42
2018-01-30T06:28:00.927Z,32.78
2018-01-30T06:30:28.552Z,38.95
2018-01-30T06:32:56.168Z,36.35
2018-01-30T06:35:24.540Z,36.30
2018-01-30T06:37:52.186Z,39.88
2018-01-30T06:40:20.642Z,41.35
2018-01-30T06:42:48.261Z,29.87
2018-01-30T06:45:15.874Z,36.13
2018-01-30T06:47:43.373Z,41.28
2018-01-30T06:50:11.747Z,34.72
2018-01-30T06:52:40.063Z,39.45
2018-01-30T06:55:07.762Z,33.65
2018-01-30T06:57:35.494Z,27.08
2018-01-30T07:00:03.882Z,29.17
2018-01-30T07:02:32.362Z,32.67
2018-01-30T07:04:59.962Z,34.38
2018-01-30T07:07:28.306Z,32.20
2018-01-30T07:09:56.041Z,34.72
2018-01-30T07:12:23.521Z,34.85
2018-01-30T07:14:51.018Z,36.63
2018-01-30T07:17:19.379Z,36.78
2018-01-30T07:19:46.926Z,28.55
2018-01-30T07:22:14.439Z,33.78
2018-01-30T07:24:41.973Z,35.17
2018-01-30T07:27:10.217Z,37.15
2018-01-30T07:29:37.720Z,35.28
2018-01-30T07:32:05.219Z,52.22
2018-01-30T07:34:32.729Z,40.53
2018-01-30T07:37:00.652Z,34.45
2018-01-30T07:39:28.129Z,42.97
2018-01-30T07:41:55.801Z,36.97
2018-01-30T07:44:24.150Z,39.30
2018-01-30T07:46:51.630Z,43.33
2018-01-30T07:49:19.129Z,37.55
2018-01-30T07:51:47.478Z,39.70
2018-01-30T07:54:14.929Z,43.58
2018-01-30T07:56:43.226Z,43.40
2018-01-30T07:59:10.815Z,51.70
2018-01-30T08:01:38.325Z,45.72
2018-01-30T08:04:06.594Z,50.70
2018-01-30T08:06:34.092Z,45.55
2018-01-30T08:09:01.576Z,38.58
2018-01-30T08:11:29.769Z,31.83
2018-01-30T08:13:57.315Z,33.75
2018-01-30T08:16:24.806Z,26.70
2018-01-30T08:18:52.318Z,33.50
2018-01-30T08:21:19.833Z,27.85
2018-01-30T08:23:48.078Z,26.27
2018-01-30T08:26:15.569Z,24.02
2018-01-30T08:28:43.850Z,22.17
2018-01-30T08:31:12.105Z,17.87
2018-01-30T08:33:39.610Z,19.30
2018-01-30T08:36:07.178Z,19.55
2018-01-30T08:38:34.661Z,18.08
2018-01-30T08:41:02.141Z,15.20
2018-01-30T08:43:30.419Z,18.08
2018-01-30T08:45:57.911Z,19.85
2018-01-30T08:48:25.498Z,20.85
2018-01-30T08:50:53.087Z,16.55
2018-01-30T08:53:20.624Z,20.02
2018-01-30T08:55:48.122Z,19.60
2018-01-30T08:58:16.398Z,16.58
2018-01-30T09:00:44.673Z,18.40
2018-01-30T09:03:12.934Z,16.45
2018-01-30T09:05:40.448Z,13.62
2018-01-30T09:08:07.942Z,12.18
2018-01-30T09:10:35.437Z,13.80
2018-01-30T09:13:02.955Z,15.88
2018-01-30T09:15:30.437Z,17.92
2018-01-30T09:17:58.722Z,13.43
2018-01-30T09:20:26.512Z,14.80
2018-01-30T09:22:53.997Z,12.98
2018-01-30T09:25:21.622Z,20.27
2018-01-30T09:27:49.174Z,13.10
2018-01-30T09:30:16.723Z,12.57
2018-01-30T09:32:44.466Z,16.70
2018-01-30T09:35:12.732Z,15.20
2018-01-30T09:37:40.213Z,14.83
2018-01-30T09:40:07.750Z,13.27
2018-01-30T09:42:35.233Z,17.43
2018-01-30T09:45:02.738Z,8.60
2018-01-30T09:47:30.225Z,15.07
2018-01-30T09:49:57.710Z,12.60
2018-01-30T09:52:25.974Z,9.77
2018-01-30T09:54:53.726Z,8.00
2018-01-30T09:57:21.345Z,9.97
2018-01-30T09:59:49.085Z,14.87
2018-01-30T10:02:17.376Z,11.70
2018-01-30T10:04:44.862Z,16.23
2018-01-30T10:07:12.369Z,9.23
2018-01-30T10:09:40.634Z,8.50
2018-01-30T10:12:08.656Z,15.73
2018-01-30T10:14:36.161Z,9.47
2018-01-30T10:17:03.649Z,7.37
2018-01-30T10:19:31.909Z,13.07
2018-01-30T10:22:00.210Z,11.27
2018-01-30T10:24:27.707Z,8.17
2018-01-30T10:26:55.197Z,9.20
2018-01-30T10:29:22.681Z,9.27
2018-01-30T10:31:50.165Z,15.93
2018-01-30T10:34:17.655Z,11.90
2018-01-30T10:36:45.294Z,9.50
2018-01-30T10:39:12.797Z,9.87
2018-01-30T10:41:41.845Z,10.03
2018-01-30T10:44:09.327Z,9.47
2018-01-30T10:46:36.846Z,10.40
2018-01-30T10:49:05.137Z,10.40
2018-01-30T10:51:32.629Z,11.10
2018-01-30T10:54:00.144Z,16.10
2018-01-30T10:56:27.666Z,17.60
2018-01-30T10:58:55.288Z,9.83
2018-01-30T11:01:22.839Z,10.07
2018-01-30T11:03:50.494Z,10.87
2018-01-30T11:06:17.991Z,8.90
2018-01-30T11:08:45.472Z,9.03
2018-01-30T11:11:13.745Z,8.20
2018-01-30T11:13:41.998Z,13.40
2018-01-30T11:16:09.702Z,9.37
2018-01-30T11:18:37.326Z,9.30
2018-01-30T11:21:05.597Z,10.57
2018-01-30T11:23:33.226Z,11.07
2018-01-30T11:26:00.729Z,7.07
2018-01-30T11:28:28.210Z,6.57
2018-01-30T11:30:55.698Z,7.90
2018-01-30T11:33:24.297Z,10.87
2018-01-30T11:35:51.901Z,7.00
2018-01-30T11:38:20.152Z,10.83
2018-01-30T11:40:47.633Z,9.87
2018-01-30T11:43:15.950Z,8.50
2018-01-30T11:45:43.431Z,11.30
2018-01-30T11:48:10.930Z,15.70
2018-01-30T11:50:39.190Z,7.73
2018-01-30T11:53:06.743Z,21.50
2018-01-30T11:55:34.289Z,12.70
2018-01-30T11:58:01.786Z,15.80
2018-01-30T12:00:30.166Z,11.83
2018-01-30T12:02:57.949Z,11.20
2018-01-30T12:05:27.413Z,14.80
2018-01-30T12:07:55.691Z,13.37
2018-01-30T12:10:23.177Z,9.07
2018-01-30T12:12:50.769Z,9.67
2018-01-30T12:15:18.781Z,13.77
2018-01-30T12:17:46.319Z,9.43
2018-01-30T12:20:14.191Z,11.73
2018-01-30T12:22:42.141Z,14.60
2018-01-30T12:25:09.679Z,12.27
2018-01-30T12:27:37.165Z,8.87
2018-01-30T12:30:04.658Z,13.10
2018-01-30T12:32:32.964Z,11.77
2018-01-30T12:35:01.254Z,12.57
2018-01-30T12:37:29.050Z,9.37
2018-01-30T12:39:56.625Z,12.53
2018-01-30T12:42:24.129Z,21.23
2018-01-30T12:44:51.921Z,17.60
2018-01-30T12:47:20.193Z,13.93
2018-01-30T12:49:48.082Z,17.20
2018-01-30T12:52:15.583Z,14.60
2018-01-30T12:54:43.126Z,11.67
2018-01-30T12:57:11.370Z,14.60
2018-01-30T12:59:38.853Z,12.17
2018-01-30T13:02:06.617Z,12.53
2018-01-30T13:04:34.149Z,11.50
2018-01-30T13:07:01.641Z,10.17
2018-01-30T13:09:29.187Z,11.17
2018-01-30T13:11:56.726Z,8.73
2018-01-30T13:14:24.214Z,14.83
2018-01-30T13:16:52.689Z,10.10
2018-01-30T13:19:20.217Z,18.93
2018-01-30T13:21:47.726Z,15.50
2018-01-30T13:24:15.507Z,10.10
2018-01-30T13:26:43.790Z,10.03
2018-01-30T13:29:12.081Z,14.93
2018-01-30T13:31:39.574Z,14.20
2018-01-30T13:34:07.077Z,12.63
2018-01-30T13:36:34.569Z,11.07
2018-01-30T13:39:02.069Z,8.80
2018-01-30T13:41:29.724Z,8.93
2018-01-30T13:43:57.985Z,10.57
2018-01-30T13:46:25.470Z,12.03
2018-01-30T13:48:53.029Z,12.80
2018-01-30T13:51:20.590Z,8.17
2018-01-30T13:53:48.069Z,11.13
2018-01-30T13:56:15.556Z,9.63
2018-01-30T13:58:43.061Z,10.03
2018-01-30T14:01:10.538Z,8.40
2018-01-30T14:03:38.009Z,8.57
2018-01-30T14:06:06.448Z,6.83
2018-01-30T14:08:34.006Z,12.60
2018-01-30T14:11:02.253Z,7.87
2018-01-30T14:13:29.744Z,8.47
2018-01-30T14:15:58.021Z,8.53
2018-01-30T14:18:25.632Z,5.97
2018-01-30T14:20:53.118Z,7.07
2018-01-30T14:23:20.606Z,8.83
2018-01-30T14:25:48.142Z,7.77
2018-01-30T14:28:16.443Z,8.43
2018-01-30T14:30:43.940Z,10.43
2018-01-30T14:33:11.487Z,5.60
2018-01-30T14:35:39.033Z,6.50
2018-01-30T14:38:06.531Z,13.23
2018-01-30T14:40:34.043Z,4.90
2018-01-30T14:43:01.529Z,5.80
2018-01-30T14:45:29.065Z,6.07
2018-01-30T14:47:56.564Z,7.57
2018-01-30T14:50:24.046Z,6.63
2018-01-30T14:52:52.299Z,7.90
2018-01-30T14:55:19.859Z,8.30
2018-01-30T14:57:47.329Z,4.50
2018-01-30T15:00:15.581Z,11.50
2018-01-30T15:02:43.169Z,7.40
2018-01-30T15:05:11.417Z,5.80
2018-01-30T15:07:39.941Z,7.47
2018-01-30T15:10:08.302Z,8.30
2018-01-30T15:12:35.901Z,8.97
2018-01-30T15:15:03.387Z,6.43
2018-01-30T15:17:30.877Z,8.00
2018-01-30T15:19:59.192Z,7.80
2018-01-30T15:22:26.672Z,8.17
2018-01-30T15:24:54.217Z,9.60
2018-01-30T15:27:21.709Z,16.00
2018-01-30T15:29:49.197Z,9.30
2018-01-30T15:32:17.516Z,8.70
2018-01-30T15:34:45.002Z,8.10
2018-01-30T15:37:12.490Z,5.77
2018-01-30T15:39:40.807Z,8.43
2018-01-30T15:42:08.289Z,10.37
2018-01-30T15:44:36.546Z,10.90
2018-01-30T15:47:04.078Z,12.77
2018-01-30T15:49:32.170Z,8.90
2018-01-30T15:51:59.658Z,8.20
2018-01-30T15:54:27.229Z,9.30
2018-01-30T15:56:54.805Z,8.77
2018-01-30T15:59:23.050Z,7.15
2018-01-30T16:01:50.592Z,10.15
2018-01-30T16:04:18.143Z,10.25
2018-01-30T16:06:45.703Z,9.17
2018-01-30T16:09:13.194Z,11.20
2018-01-30T16:11:40.757Z,10.63
2018-01-30T16:14:08.233Z,8.10
2018-01-30T16:16:35.770Z,11.38
2018-01-30T16:19:03.293Z,9.50
2018-01-30T16:21:30.774Z,12.98
2018-01-30T16:23:58.273Z,13.82
2018-01-30T16:26:25.764Z,8.83
2018-01-30T16:28:53.254Z,13.13
2018-01-30T16:31:21.125Z,10.97
2018-01-30T16:33:48.666Z,12.10
2018-01-30T16:36:16.312Z,12.20
2018-01-30T16:38:43.841Z,9.25
2018-01-30T16:41:11.331Z,9.57
2018-01-30T16:43:38.826Z,11.57
2018-01-30T16:46:06.343Z,13.65
2018-01-30T16:48:33.828Z,14.73
2018-01-30T16:51:01.321Z,11.45
2018-01-30T16:53:29.644Z,10.13
2018-01-30T16:55:57.129Z,11.60
2018-01-30T16:58:24.674Z,14.37
2018-01-30T17:00:52.163Z,11.07
2018-01-30T17:03:20.425Z,10.10
2018-01-30T17:05:48.878Z,12.52
2018-01-30T17:08:16.542Z,12.10
2018-01-30T17:10:44.284Z,12.43
2018-01-30T17:13:11.792Z,12.05
2018-01-30T17:15:40.142Z,10.02
2018-01-30T17:18:07.673Z,14.55
2018-01-30T17:20:35.194Z,17.80
2018-01-30T17:23:02.686Z,14.18
2018-01-30T17:25:31.134Z,13.35
2018-01-30T17:27:58.726Z,16.35
2018-01-30T17:30:26.469Z,14.05
2018-01-30T17:32:54.738Z,15.65
2018-01-30T17:35:23.026Z,15.38
2018-01-30T17:37:51.357Z,17.25
2018-01-30T17:40:19.021Z,18.27
2018-01-30T17:42:49.057Z,15.95
2018-01-30T17:45:16.554Z,12.37
2018-01-30T17:47:44.062Z,16.17
2018-01-30T17:50:12.715Z,19.27
2018-01-30T17:52:40.213Z,14.82
2018-01-30T17:55:07.909Z,17.15
2018-01-30T17:57:35.402Z,13.30
2018-01-30T18:00:03.027Z,13.85
2018-01-30T18:02:31.030Z,19.77
2018-01-30T18:05:00.358Z,18.50
2018-01-30T18:07:29.555Z,20.10
2018-01-30T18:09:58.726Z,20.20
2018-01-30T18:12:26.276Z,21.17
2018-01-30T18:14:53.851Z,19.92
2018-01-30T18:17:21.637Z,22.65
2018-01-30T18:19:49.886Z,20.85
2018-01-30T18:22:18.132Z,20.98
2018-01-30T18:24:47.355Z,22.62
2018-01-30T18:27:17.232Z,24.30
2018-01-30T18:29:46.082Z,17.60
2018-01-30T18:32:14.683Z,21.55
2018-01-30T18:34:42.651Z,23.52
2018-01-30T18:37:11.070Z,21.52
2018-01-30T18:39:39.553Z,27.27
2018-01-30T18:42:14.315Z,26.70
2018-01-30T18:44:41.917Z,23.15
2018-01-30T18:47:11.648Z,20.73
2018-01-30T18:49:39.921Z,22.87
2018-01-30T18:52:08.586Z,23.85
2018-01-30T18:54:36.517Z,26.45
2018-01-30T18:57:04.033Z,18.10
2018-01-30T18:59:31.529Z,26.70
2018-01-30T19:01:59.016Z,22.20
2018-01-30T19:04:26.638Z,19.05
2018-01-30T19:06:54.235Z,22.98
2018-01-30T19:09:21.798Z,18.48
2018-01-30T19:11:50.474Z,21.02
2018-01-30T19:14:17.960Z,28.60
2018-01-30T19:16:46.209Z,21.98
2018-01-30T19:19:14.461Z,21.75
2018-01-30T19:21:42.081Z,29.30
2018-01-30T19:24:09.778Z,22.55
2018-01-30T19:26:37.324Z,22.58
2018-01-30T19:29:04.847Z,25.65
2018-01-30T19:31:32.359Z,24.00
2018-01-30T19:33:59.925Z,23.85
2018-01-30T19:36:28.021Z,28.35
2018-01-30T19:38:55.530Z,24.87
2018-01-30T19:41:23.026Z,26.80
2018-01-30T19:43:50.612Z,26.17
2018-01-30T19:46:18.961Z,22.27
2018-01-30T19:48:47.282Z,30.02
2018-01-30T19:51:15.546Z,21.48
2018-01-30T19:53:43.066Z,26.05
2018-01-30T19:56:12.521Z,22.60
2018-01-30T19:58:40.797Z,23.33
2018-01-30T20:01:09.272Z,24.87
2018-01-30T20:03:36.936Z,25.65
2018-01-30T20:06:05.678Z,21.75
2018-01-30T20:08:33.362Z,26.67
2018-01-30T20:11:01.906Z,24.98
2018-01-30T20:13:29.590Z,28.62
2018-01-30T20:15:57.435Z,28.05
2018-01-30T20:18:25.061Z,27.95
2018-01-30T20:20:52.654Z,30.48
2018-01-30T20:23:20.213Z,30.27
2018-01-30T20:25:47.903Z,33.80
2018-01-30T20:28:15.506Z,29.73
2018-01-30T20:30:43.857Z,29.48
2018-01-30T20:33:11.588Z,28.73
2018-01-30T20:35:40.020Z,32.63
2018-01-30T20:38:07.693Z,27.55
2018-01-30T20:40:35.341Z,29.00
2018-01-30T20:43:03.593Z,29.08
2018-01-30T20:45:32.004Z,32.55
2018-01-30T20:48:00.472Z,34.35
2018-01-30T20:50:28.077Z,29.92
2018-01-30T20:52:55.963Z,31.27
2018-01-30T20:55:23.594Z,36.40
2018-01-30T20:57:51.710Z,33.00
2018-01-30T21:00:19.194Z,31.25
2018-01-30T21:02:46.738Z,31.35
2018-01-30T21:05:14.275Z,32.15
2018-01-30T21:07:41.763Z,29.58
2018-01-30T21:10:09.736Z,29.02
2018-01-30T21:12:37.335Z,25.27
2018-01-30T21:15:05.977Z,30.92
2018-01-30T21:17:33.566Z,32.55
2018-01-30T21:20:01.126Z,28.70
2018-01-30T21:22:28.615Z,30.98
2018-01-30T21:24:56.173Z,32.38
2018-01-30T21:27:23.801Z,30.40
2018-01-30T21:29:52.165Z,36.10
2018-01-30T21:32:20.466Z,32.90
2018-01-30T21:34:48.018Z,31.00
2018-01-30T21:37:16.470Z,34.22
2018-01-30T21:39:44.365Z,34.33
2018-01-30T21:42:12.001Z,29.65
2018-01-30T21:44:40.379Z,33.90
2018-01-30T21:47:08.026Z,30.75
2018-01-30T21:49:35.705Z,27.95
2018-01-30T21:52:03.497Z,37.45
2018-01-30T21:54:31.010Z,32.85
2018-01-30T21:56:59.306Z,36.80
2018-01-30T21:59:27.690Z,36.15
2018-01-30T22:01:55.253Z,33.88
2018-01-30T22:04:24.303Z,35.50
2018-01-30T22:06:52.678Z,35.88
2018-01-30T22:09:20.377Z,28.95
2018-01-30T22:11:48.409Z,33.03
2018-01-30T22:14:16.018Z,30.50
2018-01-30T22:16:44.612Z,29.50
2018-01-30T22:19:12.894Z,29.85
2018-01-30T22:21:41.615Z,30.70
2018-01-30T22:24:09.233Z,28.17
2018-01-30T22:26:37.673Z,31.75
2018-01-30T22:29:05.849Z,30.77
2018-01-30T22:31:33.334Z,26.67
2018-01-30T22:34:01.613Z,28.75
2018-01-30T22:36:29.862Z,25.48
2018-01-30T22:38:57.354Z,26.58
2018-01-30T22:41:24.881Z,27.10
2018-01-30T22:43:52.983Z,26.77
2018-01-30T22:46:20.694Z,24.42
